Providence, Rhode Island
Current Conditions -  °F | °C
As of 6:51 AM on Sunday 21 Dec 2014 (Local Time) from KPVD Reporting Station
Drizzle Drizzle  
Wind Chill: 26°   Ceiling: 700
Heat Index: 33°   Visibility: 6mi
Dew Point: 31°   Wind: 8mph
Humidity: 92%   Direction: 360°N
Pressure: 30.28"   Gusts: NA
Location:  41.82°N, 71.41°W
Report Text: KPVD 211151Z 36007KT 6SM -DZ BR OVC007 01/M01 A3028 RMK AO2 DZB14 SLP255 P0000 60000 70008 T00061006 10006 20000 53007
Loading
Personal Weather Stations






























Interactive Weather Map New forecast layout! Learn more

10-Day Weather Forecast

Advertisements
Track Severe Weather on mobile